Time;durP1;ratioP1;P1;durP2;ratioP2;P2;SDS_P1;SDS_P2;PMS_P1;PMS_P2;Temp;Humidity;BMP_temperature;BMP_pressure;BME280_temperature;BME280_humidity;BME280_pressure;Samples;Min_cycle;Max_cycle;Signal;HPM_P1;HPM_P2
2021/09/23 00:00:44;;;;;;;8.93;6.90;;;13.60;99.90;;;;;;4987848;28;20206;-84
2021/09/23 00:03:15;;;;;;;11.93;7.28;;;13.60;99.90;;;;;;4986710;28;20215;-85
2021/09/23 00:05:42;;;;;;;15.93;8.93;;;13.70;99.90;;;;;;5004523;28;20223;-86
2021/09/23 00:08:11;;;;;;;10.20;7.97;;;13.70;99.90;;;;;;5004729;28;20207;-86
2021/09/23 00:10:40;;;;;;;9.02;6.43;;;13.60;99.90;;;;;;4987091;28;20513;-86
2021/09/23 00:13:10;;;;;;;8.05;6.43;;;13.60;99.90;;;;;;5004711;28;20525;-85
2021/09/23 00:15:37;;;;;;;20.60;7.93;;;13.50;99.90;;;;;;4987088;28;20201;-84
2021/09/23 00:18:09;;;;;;;12.45;7.53;;;13.40;99.90;;;;;;4986419;28;20264;-84
2021/09/23 00:20:40;;;;;;;10.25;6.90;;;13.30;99.90;;;;;;4980055;28;20251;-84
2021/09/23 00:23:09;;;;;;;10.82;6.75;;;13.20;99.90;;;;;;5002689;28;20464;-84
2021/09/23 00:25:38;;;;;;;9.30;6.78;;;13.10;99.90;;;;;;5003135;28;20208;-85
2021/09/23 00:28:07;;;;;;;10.18;7.05;;;12.90;99.90;;;;;;5004143;28;20431;-85
2021/09/23 00:30:35;;;;;;;11.82;6.32;;;12.80;99.90;;;;;;4999363;28;20600;-84
2021/09/23 00:33:03;;;;;;;9.23;6.93;;;12.60;99.90;;;;;;4994501;28;20200;-84
2021/09/23 00:35:30;;;;;;;14.55;6.45;;;12.50;99.90;;;;;;4982456;28;20188;-83
2021/09/23 00:37:58;;;;;;;11.82;6.85;;;12.40;99.90;;;;;;4986849;28;20203;-85
2021/09/23 00:40:25;;;;;;;12.38;6.55;;;12.40;99.90;;;;;;4986346;28;20229;-84
2021/09/23 00:42:53;;;;;;;12.93;6.50;;;12.50;99.90;;;;;;4986765;28;20212;-85
2021/09/23 00:45:21;;;;;;;15.73;8.20;;;12.50;99.90;;;;;;4994962;28;20226;-84
2021/09/23 00:47:50;;;;;;;10.73;8.52;;;12.50;99.90;;;;;;5004179;28;20212;-85
2021/09/23 00:50:20;;;;;;;10.95;7.50;;;12.50;99.90;;;;;;4993910;28;20204;-84
2021/09/23 00:52:48;;;;;;;13.88;7.90;;;12.50;99.90;;;;;;5000001;28;20201;-84
2021/09/23 00:55:18;;;;;;;10.38;7.65;;;12.30;99.90;;;;;;5003165;28;20435;-84
2021/09/23 00:57:46;;;;;;;11.30;7.25;;;12.40;99.90;;;;;;4976154;28;20384;-83
2021/09/23 01:00:16;;;;;;;10.50;9.07;;;12.50;99.90;;;;;;5002567;28;20540;-84
2021/09/23 01:02:43;;;;;;;12.82;8.05;;;12.50;99.90;;;;;;4984763;28;20196;-84
2021/09/23 01:05:11;;;;;;;15.70;8.05;;;12.50;99.90;;;;;;4989930;28;20204;-85
2021/09/23 01:07:47;;;;;;;9.90;8.05;;;12.60;99.90;;;;;;4988100;28;20203;-84
2021/09/23 01:10:20;;;;;;;9.77;7.97;;;12.50;99.90;;;;;;5003411;28;20211;-84
2021/09/23 01:12:48;;;;;;;9.43;6.45;;;12.50;99.90;;;;;;4986245;28;20216;-84
2021/09/23 01:15:18;;;;;;;11.52;7.68;;;12.40;99.90;;;;;;5002923;28;20201;-84
2021/09/23 01:17:47;;;;;;;14.90;7.18;;;12.50;99.90;;;;;;5003438;28;20229;-85
2021/09/23 01:20:16;;;;;;;8.93;7.93;;;12.70;99.90;;;;;;4994894;28;20263;-84
2021/09/23 01:22:44;;;;;;;9.48;6.28;;;12.90;99.90;;;;;;4984238;28;20208;-84
2021/09/23 01:25:22;;;;;;;12.95;6.60;;;13.00;99.90;;;;;;5003360;28;20200;-84
2021/09/23 01:27:51;;;;;;;10.23;6.93;;;13.00;99.90;;;;;;4987960;28;20196;-84
2021/09/23 01:30:19;;;;;;;9.05;6.38;;;13.00;99.90;;;;;;5004419;28;20211;-84
2021/09/23 01:32:46;;;;;;;7.57;6.78;;;13.00;99.90;;;;;;5003051;28;20215;-82
2021/09/23 01:35:14;;;;;;;9.75;6.95;;;13.10;99.90;;;;;;5002130;28;20220;-82
2021/09/23 01:37:41;;;;;;;12.88;7.03;;;13.20;99.90;;;;;;4985512;28;20209;-85
2021/09/23 01:40:11;;;;;;;9.02;5.28;;;13.20;99.90;;;;;;4985428;28;20271;-83
2021/09/23 01:42:44;;;;;;;8.43;6.32;;;13.30;99.90;;;;;;4985591;28;20213;-82
2021/09/23 01:45:13;;;;;;;12.50;6.63;;;13.30;99.90;;;;;;4999729;28;20196;-82
2021/09/23 01:47:40;;;;;;;9.68;6.30;;;13.20;99.90;;;;;;4985836;28;20212;-81
2021/09/23 01:50:08;;;;;;;12.88;5.75;;;13.30;99.90;;;;;;4983977;28;20215;-83
2021/09/23 01:52:35;;;;;;;6.47;5.38;;;13.20;99.90;;;;;;4987415;28;20400;-83
2021/09/23 01:55:04;;;;;;;11.40;6.10;;;13.20;99.90;;;;;;5006351;28;20208;-83
2021/09/23 01:57:31;;;;;;;10.82;5.80;;;13.20;99.90;;;;;;5006284;28;20205;-81
2021/09/23 01:59:58;;;;;;;18.77;6.18;;;13.30;99.90;;;;;;4992828;28;20295;-82
2021/09/23 02:02:25;;;;;;;8.77;5.15;;;13.30;99.90;;;;;;4989131;28;20201;-82
2021/09/23 02:04:54;;;;;;;5.55;4.93;;;13.30;99.90;;;;;;5006984;28;20517;-82
2021/09/23 02:07:22;;;;;;;9.35;6.68;;;13.40;99.90;;;;;;5003617;28;20502;-83
2021/09/23 02:09:50;;;;;;;8.48;6.25;;;13.30;99.90;;;;;;4989185;28;20215;-83
2021/09/23 02:12:20;;;;;;;8.68;5.10;;;13.30;99.90;;;;;;4989512;28;20259;-83
2021/09/23 02:14:49;;;;;;;6.72;5.05;;;13.50;99.90;;;;;;4990700;28;20204;-84
2021/09/23 02:17:16;;;;;;;14.75;5.30;;;13.50;99.90;;;;;;5005706;28;20212;-82
2021/09/23 02:19:43;;;;;;;6.95;5.13;;;13.30;99.90;;;;;;5005755;28;20218;-82
2021/09/23 02:22:11;;;;;;;7.45;4.20;;;13.20;99.90;;;;;;4989017;28;20252;-82
2021/09/23 02:24:38;;;;;;;9.80;4.93;;;12.90;99.90;;;;;;4988296;28;20200;-82
2021/09/23 02:27:06;;;;;;;7.45;4.70;;;13.00;99.90;;;;;;5003887;28;20263;-82
2021/09/23 02:29:34;;;;;;;14.50;5.40;;;13.10;99.90;;;;;;4988811;28;20223;-83
2021/09/23 02:32:03;;;;;;;6.63;5.30;;;13.10;99.90;;;;;;5006923;28;20231;-82
2021/09/23 02:34:30;;;;;;;8.50;4.65;;;13.20;99.90;;;;;;5003864;28;20212;-82
2021/09/23 02:36:58;;;;;;;5.57;3.95;;;13.30;99.90;;;;;;5003560;28;20208;-81
2021/09/23 02:39:25;;;;;;;4.88;3.60;;;13.50;99.90;;;;;;5004772;28;20542;-81
2021/09/23 02:41:53;;;;;;;6.88;4.32;;;13.40;99.90;;;;;;5001839;28;20217;-82
2021/09/23 02:44:20;;;;;;;6.22;4.13;;;13.20;99.90;;;;;;4995977;28;20200;-82
2021/09/23 02:46:50;;;;;;;6.60;3.63;;;13.20;99.90;;;;;;5003065;28;20201;-83
2021/09/23 02:49:17;;;;;;;6.20;4.85;;;13.30;99.90;;;;;;5004841;28;20381;-84
2021/09/23 02:51:44;;;;;;;4.95;4.28;;;13.30;99.90;;;;;;4987882;28;20266;-83
2021/09/23 02:54:11;;;;;;;5.85;4.72;;;13.30;99.90;;;;;;5004956;28;20434;-84
2021/09/23 02:56:39;;;;;;;9.30;4.70;;;13.30;99.90;;;;;;5002215;28;20307;-83
2021/09/23 02:59:06;;;;;;;6.05;4.57;;;13.20;99.90;;;;;;4990223;28;20270;-82
2021/09/23 03:01:33;;;;;;;6.53;4.45;;;13.20;99.90;;;;;;5004699;28;20210;-83
2021/09/23 03:04:01;;;;;;;9.15;5.03;;;13.20;99.90;;;;;;4987044;28;20205;-83
2021/09/23 03:06:30;;;;;;;4.07;3.25;;;13.30;99.90;;;;;;4981638;28;20499;-82
2021/09/23 03:08:57;;;;;;;6.95;4.57;;;13.40;99.90;;;;;;5005457;28;20447;-83
2021/09/23 03:11:24;;;;;;;5.20;3.92;;;13.50;99.90;;;;;;4988010;28;20208;-85
2021/09/23 03:13:53;;;;;;;5.65;3.90;;;13.50;99.90;;;;;;5005055;28;20221;-84
2021/09/23 03:16:20;;;;;;;4.40;3.60;;;13.50;99.90;;;;;;4988075;28;20197;-84
2021/09/23 03:18:48;;;;;;;5.68;3.75;;;13.60;99.90;;;;;;5005195;28;20205;-83
2021/09/23 03:21:16;;;;;;;6.55;4.18;;;13.60;99.90;;;;;;4994845;28;20521;-84
2021/09/23 03:23:44;;;;;;;4.68;4.22;;;13.60;99.90;;;;;;5005444;28;20513;-83
2021/09/23 03:26:11;;;;;;;4.00;3.53;;;13.60;99.90;;;;;;5005469;28;20260;-83
2021/09/23 03:28:39;;;;;;;5.80;4.38;;;13.70;99.90;;;;;;4987095;28;20244;-83
2021/09/23 03:31:06;;;;;;;6.30;3.95;;;13.70;99.90;;;;;;4988651;28;20247;-83
2021/09/23 03:33:34;;;;;;;5.90;3.70;;;13.70;99.90;;;;;;4995847;28;20216;-84
2021/09/23 03:36:01;;;;;;;11.32;4.55;;;13.70;99.90;;;;;;4990449;28;20215;-84
2021/09/23 03:38:30;;;;;;;9.50;4.45;;;13.80;99.90;;;;;;4983955;28;20426;-83
2021/09/23 03:40:57;;;;;;;9.57;5.05;;;13.80;99.90;;;;;;4987686;28;20229;-83
2021/09/23 03:43:25;;;;;;;4.30;3.90;;;13.90;99.90;;;;;;5004928;28;20510;-83
2021/09/23 03:45:53;;;;;;;5.45;3.83;;;13.90;99.90;;;;;;4987314;28;20201;-84
2021/09/23 03:48:20;;;;;;;6.10;4.25;;;13.80;99.90;;;;;;4997465;28;20204;-87
2021/09/23 03:50:48;;;;;;;8.10;3.90;;;13.80;99.90;;;;;;4988564;28;20212;-86
2021/09/23 03:53:16;;;;;;;4.63;3.75;;;13.70;99.90;;;;;;5005390;28;20214;-85
2021/09/23 03:55:43;;;;;;;7.72;4.22;;;13.70;99.90;;;;;;4999683;28;20208;-85
2021/09/23 03:58:11;;;;;;;7.20;3.65;;;13.60;99.90;;;;;;5004822;28;20213;-85
2021/09/23 04:00:38;;;;;;;5.22;4.20;;;13.40;99.90;;;;;;4987699;28;20239;-84
2021/09/23 04:03:06;;;;;;;9.45;3.35;;;13.20;99.90;;;;;;5004913;28;20236;-85
2021/09/23 04:05:33;;;;;;;6.95;3.90;;;13.20;99.90;;;;;;5004688;28;20449;-84
2021/09/23 04:08:02;;;;;;;8.93;3.97;;;13.00;99.90;;;;;;5005389;28;20402;-83
2021/09/23 04:10:29;;;;;;;7.57;4.07;;;13.10;99.90;;;;;;4994196;28;20260;-84
2021/09/23 04:12:57;;;;;;;4.13;3.40;;;13.00;99.90;;;;;;5008460;28;20393;-83
2021/09/23 04:15:24;;;;;;;6.90;4.43;;;13.00;99.90;;;;;;5004385;28;20254;-84
2021/09/23 04:17:52;;;;;;;4.15;3.70;;;12.80;99.90;;;;;;5004802;28;20231;-84
2021/09/23 04:20:20;;;;;;;8.35;4.20;;;12.90;99.90;;;;;;4996520;28;20290;-83
2021/09/23 04:22:48;;;;;;;7.82;4.57;;;13.00;99.90;;;;;;4998893;28;20202;-84
2021/09/23 04:25:16;;;;;;;9.00;4.93;;;13.10;99.90;;;;;;5003970;28;20201;-83
2021/09/23 04:27:43;;;;;;;5.70;3.20;;;13.00;99.90;;;;;;4987826;28;20290;-82
2021/09/23 04:30:12;;;;;;;7.38;3.95;;;12.80;99.90;;;;;;5004891;28;20209;-84
2021/09/23 04:32:40;;;;;;;5.43;3.47;;;12.80;99.90;;;;;;5004061;28;20215;-83
2021/09/23 04:35:07;;;;;;;10.48;4.00;;;12.80;99.90;;;;;;5007220;28;20219;-84
2021/09/23 04:37:34;;;;;;;3.95;3.65;;;12.70;99.90;;;;;;5002475;28;20213;-85
2021/09/23 04:40:01;;;;;;;10.32;4.32;;;12.90;99.90;;;;;;5008696;28;20221;-84
2021/09/23 04:42:29;;;;;;;5.05;4.10;;;13.10;99.90;;;;;;5007640;28;20216;-85
2021/09/23 04:44:57;;;;;;;8.57;4.40;;;13.10;99.90;;;;;;4992529;28;20200;-84
2021/09/23 04:47:24;;;;;;;4.28;3.67;;;13.20;99.90;;;;;;5006341;28;20209;-86
2021/09/23 04:49:52;;;;;;;4.32;3.92;;;13.30;99.90;;;;;;4982198;28;20256;-84
2021/09/23 04:52:19;;;;;;;9.80;3.72;;;13.30;99.90;;;;;;5003622;28;20245;-84
2021/09/23 04:54:46;;;;;;;9.90;4.40;;;13.30;99.90;;;;;;5002604;28;20662;-84
2021/09/23 04:57:15;;;;;;;8.35;4.40;;;13.40;99.90;;;;;;5001520;28;20209;-84
2021/09/23 04:59:42;;;;;;;7.38;4.35;;;13.30;99.90;;;;;;5003314;28;20251;-84
2021/09/23 05:02:09;;;;;;;4.95;4.07;;;13.30;99.90;;;;;;5000821;28;20216;-85
2021/09/23 05:04:44;;;;;;;7.40;4.30;;;13.20;99.90;;;;;;5002242;28;20259;-85
2021/09/23 05:07:12;;;;;;;4.88;4.40;;;13.10;99.90;;;;;;5002405;28;20429;-85
2021/09/23 05:09:40;;;;;;;7.90;4.10;;;13.10;99.90;;;;;;4985233;28;20207;-85
2021/09/23 05:12:09;;;;;;;4.95;3.70;;;13.00;99.90;;;;;;4983083;28;20438;-85
2021/09/23 05:14:37;;;;;;;11.23;5.18;;;13.00;99.90;;;;;;4995548;28;20225;-84
2021/09/23 05:17:04;;;;;;;10.73;5.00;;;12.80;99.90;;;;;;4982666;28;20232;-85
2021/09/23 05:19:31;;;;;;;6.25;3.78;;;12.90;99.90;;;;;;4990605;28;20252;-85
2021/09/23 05:21:59;;;;;;;6.72;4.22;;;12.70;99.90;;;;;;4997827;28;20205;-84
2021/09/23 05:24:26;;;;;;;5.90;3.45;;;12.90;99.90;;;;;;4983768;28;20299;-84
2021/09/23 05:26:53;;;;;;;11.93;3.70;;;13.00;99.90;;;;;;4996408;28;20237;-84
2021/09/23 05:29:20;;;;;;;7.25;3.33;;;13.10;99.90;;;;;;5001535;28;20394;-84
2021/09/23 05:31:51;;;;;;;6.93;5.18;;;13.10;99.90;;;;;;5003948;28;20276;-84
2021/09/23 05:34:19;;;;;;;6.72;4.78;;;13.10;99.90;;;;;;5007334;28;20615;-85
2021/09/23 05:36:47;;;;;;;6.20;3.85;;;13.20;99.90;;;;;;5006587;28;20248;-84
2021/09/23 05:39:14;;;;;;;6.90;4.47;;;13.30;99.90;;;;;;4989097;28;20275;-85
2021/09/23 05:41:42;;;;;;;7.72;3.92;;;13.60;99.90;;;;;;4979525;28;20256;-85
2021/09/23 05:44:10;;;;;;;6.40;4.90;;;13.60;99.90;;;;;;4961960;28;20224;-85
2021/09/23 05:46:41;;;;;;;5.93;4.40;;;13.60;99.90;;;;;;4985552;28;20386;-85
2021/09/23 05:49:08;;;;;;;4.82;4.43;;;13.60;99.90;;;;;;4984954;28;20494;-84
2021/09/23 05:51:36;;;;;;;6.47;4.35;;;13.60;99.90;;;;;;4988449;28;20275;-85
2021/09/23 05:54:04;;;;;;;7.20;5.00;;;13.60;99.90;;;;;;4996205;28;20484;-85
2021/09/23 05:56:35;;;;;;;14.18;4.43;;;13.90;99.90;;;;;;4994551;28;20202;-84
2021/09/23 05:59:02;;;;;;;7.10;4.78;;;14.10;99.90;;;;;;4981659;28;20442;-84
2021/09/23 06:01:29;;;;;;;6.18;4.57;;;14.10;99.90;;;;;;5000114;28;20226;-84
2021/09/23 06:03:57;;;;;;;6.55;4.70;;;14.20;99.90;;;;;;4992008;28;20199;-85
2021/09/23 06:06:25;;;;;;;17.27;5.13;;;14.30;99.90;;;;;;4989034;28;20213;-85
2021/09/23 06:08:52;;;;;;;5.22;4.60;;;14.20;99.90;;;;;;4991269;28;20247;-86
2021/09/23 06:11:20;;;;;;;6.15;5.18;;;14.20;99.90;;;;;;4985708;28;20202;-86
2021/09/23 06:13:47;;;;;;;7.65;4.78;;;14.40;99.90;;;;;;4985457;28;20209;-87
2021/09/23 06:16:15;;;;;;;6.10;4.50;;;14.80;99.90;;;;;;5006214;28;20248;-85
2021/09/23 06:18:42;;;;;;;6.18;3.47;;;15.10;99.90;;;;;;4992887;28;20410;-86
2021/09/23 06:21:09;;;;;;;4.95;4.07;;;15.20;99.90;;;;;;5004587;28;20268;-86
2021/09/23 06:23:37;;;;;;;11.13;6.00;;;15.10;99.90;;;;;;4988395;28;20237;-88
2021/09/23 06:26:04;;;;;;;8.48;4.82;;;15.30;99.90;;;;;;5005517;28;20220;-87
2021/09/23 06:28:32;;;;;;;9.07;4.88;;;15.40;99.90;;;;;;4988786;28;20197;-87
2021/09/23 06:31:01;;;;;;;6.65;5.90;;;15.60;99.90;;;;;;4994590;28;20202;-89
2021/09/23 06:33:29;;;;;;;5.88;4.40;;;15.80;99.90;;;;;;5006855;28;20221;-85
2021/09/23 06:35:57;;;;;;;7.90;5.10;;;16.50;99.90;;;;;;5007718;28;20517;-83
2021/09/23 06:38:25;;;;;;;11.10;5.23;;;17.20;99.90;;;;;;5008035;28;20610;-87
2021/09/23 06:40:55;;;;;;;5.67;4.07;;;17.70;99.90;;;;;;5001382;28;20502;-85
2021/09/23 06:43:23;;;;;;;7.80;4.40;;;18.50;99.90;;;;;;4981571;28;20447;-85
2021/09/23 06:45:50;;;;;;;5.10;4.00;;;19.10;99.90;;;;;;4985825;28;20473;-87
2021/09/23 06:48:18;;;;;;;7.53;4.50;;;19.50;99.90;;;;;;5006489;28;20442;-86
2021/09/23 06:50:45;;;;;;;4.63;3.73;;;20.50;99.90;;;;;;5002986;28;20421;-86
2021/09/23 06:53:13;;;;;;;6.97;5.70;;;21.60;99.90;;;;;;4991006;28;20835;-88
2021/09/23 06:55:40;;;;;;;5.83;4.40;;;22.50;99.90;;;;;;4990091;28;20421;-86
2021/09/23 06:58:08;;;;;;;5.97;4.10;;;23.70;99.90;;;;;;4990019;28;20449;-85
2021/09/23 07:00:35;;;;;;;5.00;4.50;;;24.10;99.90;;;;;;4989026;28;20466;-90
2021/09/23 07:03:03;;;;;;;4.87;4.37;;;23.40;99.90;;;;;;5004002;28;20443;-87
2021/09/23 07:05:30;;;;;;;4.37;4.07;;;22.70;99.90;;;;;;5000345;28;20461;-87
2021/09/23 07:07:58;;;;;;;4.67;4.23;;;22.00;99.90;;;;;;5005846;28;20463;-86
2021/09/23 07:10:25;;;;;;;5.57;5.17;;;21.80;99.90;;;;;;4981774;28;20507;-87
2021/09/23 07:12:55;;;;;;;5.20;4.80;;;21.60;99.90;;;;;;4993735;28;20447;-87
2021/09/23 07:15:22;;;;;;;10.73;4.97;;;21.00;99.90;;;;;;5003734;28;20451;-85
2021/09/23 07:17:49;;;;;;;7.50;5.70;;;20.40;99.90;;;;;;5002067;28;20439;-83
2021/09/23 07:20:19;;;;;;;5.50;4.57;;;20.10;99.90;;;;;;4998257;28;20471;-86
2021/09/23 07:22:46;;;;;;;5.80;5.20;;;19.90;99.90;;;;;;4990486;28;20721;-89
2021/09/23 07:25:13;;;;;;;5.10;4.50;;;20.50;99.90;;;;;;5004945;28;20449;-87
2021/09/23 07:27:40;;;;;;;6.23;5.70;;;20.70;99.90;;;;;;4984123;28;20399;-89
2021/09/23 07:30:08;;;;;;;6.53;4.80;;;20.90;99.90;;;;;;5002545;28;20696;-84
2021/09/23 07:32:35;;;;;;;6.53;4.80;;;20.90;99.90;;;;;;4984721;28;20450;-85
2021/09/23 07:35:02;;;;;;;8.10;5.27;;;21.00;99.90;;;;;;5001875;28;20427;-84
2021/09/23 07:37:29;;;;;;;6.20;5.60;;;20.90;99.90;;;;;;5002955;28;20431;-85
2021/09/23 07:39:57;;;;;;;5.87;5.37;;;20.20;99.90;;;;;;4984375;28;20443;-86
2021/09/23 07:42:24;;;;;;;8.27;5.40;;;19.90;99.90;;;;;;4996015;28;20448;-86
2021/09/23 07:44:52;;;;;;;5.70;5.20;;;19.30;99.90;;;;;;4981742;28;20471;-85
2021/09/23 07:47:19;;;;;;;7.40;6.70;;;19.10;99.90;;;;;;5002701;28;20443;-87
2021/09/23 07:49:47;;;;;;;7.80;5.97;;;18.80;99.90;;;;;;5003302;28;20417;-86
2021/09/23 07:52:14;;;;;;;6.90;5.90;;;19.00;99.90;;;;;;4987550;28;20582;-85
2021/09/23 07:54:41;;;;;;;11.73;6.03;;;19.30;99.90;;;;;;4988009;28;20401;-87
2021/09/23 07:57:08;;;;;;;7.07;4.57;;;20.10;99.90;;;;;;5005282;28;20410;-85
2021/09/23 07:59:36;;;;;;;5.90;5.00;;;21.40;99.90;;;;;;4989315;28;20421;-85
2021/09/23 08:02:03;;;;;;;8.97;5.90;;;22.60;99.90;;;;;;5003936;28;20477;-87
2021/09/23 08:04:32;;;;;;;6.00;5.50;;;23.60;99.90;;;;;;5003313;28;20472;-84
2021/09/23 08:06:59;;;;;;;6.60;5.90;;;23.60;99.90;;;;;;4986577;28;20442;-86
2021/09/23 08:09:27;;;;;;;6.20;5.77;;;23.40;99.90;;;;;;4987518;28;20438;-84
2021/09/23 08:11:54;;;;;;;5.00;4.50;;;22.80;99.90;;;;;;4986095;28;20755;-85
2021/09/23 08:14:22;;;;;;;7.00;6.30;;;22.70;99.90;;;;;;4986770;28;20485;-85
2021/09/23 08:16:51;;;;;;;10.33;6.97;;;22.50;99.90;;;;;;4982161;28;20655;-86
2021/09/23 08:19:18;;;;;;;8.80;7.07;;;22.80;99.90;;;;;;5004322;28;20435;-86
2021/09/23 08:21:49;;;;;;;6.90;6.30;;;23.80;99.90;;;;;;4986402;28;20507;-87
2021/09/23 08:24:17;;;;;;;7.40;6.70;;;24.40;99.90;;;;;;5003180;28;20431;-86
2021/09/23 08:26:44;;;;;;;8.30;7.70;;;24.60;99.90;;;;;;4986049;28;20437;-84
2021/09/23 08:29:11;;;;;;;6.03;5.63;;;24.30;99.90;;;;;;4997191;28;20435;-88
2021/09/23 08:31:39;;;;;;;7.90;7.13;;;23.40;99.90;;;;;;4985871;28;20518;-90
2021/09/23 08:34:07;;;;;;;8.40;7.47;;;22.60;99.90;;;;;;4986047;28;20461;-87
2021/09/23 08:36:34;;;;;;;6.67;6.10;;;22.50;99.90;;;;;;4993122;28;20482;-89
2021/09/23 08:39:02;;;;;;;9.13;8.23;;;23.20;99.90;;;;;;5004992;28;20494;-86
2021/09/23 08:41:30;;;;;;;7.97;7.17;;;23.70;99.90;;;;;;4997275;28;20613;-88
2021/09/23 08:43:59;;;;;;;8.83;7.93;;;23.90;99.90;;;;;;4979937;28;20486;-89
2021/09/23 08:46:31;;;;;;;7.93;7.23;;;23.50;99.90;;;;;;5003561;28;20779;-89
2021/09/23 08:48:59;;;;;;;8.33;7.23;;;23.60;99.90;;;;;;5004102;28;20606;-85
2021/09/23 08:51:28;;;;;;;7.83;7.13;;;22.90;99.90;;;;;;5002874;28;20462;-88
2021/09/23 08:53:55;;;;;;;7.83;6.93;;;22.40;99.90;;;;;;5002137;28;20421;-86
2021/09/23 08:56:23;;;;;;;8.30;7.50;;;22.40;99.90;;;;;;4985768;28;20451;-87
2021/09/23 08:58:50;;;;;;;8.80;7.53;;;23.60;99.90;;;;;;4991707;28;20446;-89
2021/09/23 09:01:18;;;;;;;10.80;6.80;;;25.10;99.90;;;;;;4994869;28;20507;-88
2021/09/23 09:04:00;;;;;;;7.07;6.47;;;25.40;99.90;;;;;;4996963;28;20454;-90
2021/09/23 09:06:30;;;;;;;6.50;6.10;;;25.00;99.90;;;;;;4996285;28;20450;-87
2021/09/23 09:08:57;;;;;;;7.93;7.23;;;24.40;99.90;;;;;;4999025;28;20444;-88
2021/09/23 09:11:27;;;;;;;7.97;7.30;;;23.50;99.90;;;;;;4985253;28;20729;-87
2021/09/23 09:13:55;;;;;;;8.60;7.73;;;22.40;99.90;;;;;;5007131;28;20441;-87
2021/09/23 09:16:28;;;;;;;7.70;7.00;;;21.60;99.90;;;;;;4996921;28;20472;-87
2021/09/23 09:18:58;;;;;;;7.93;6.80;;;20.90;99.90;;;;;;5002229;28;20462;-87
2021/09/23 09:21:27;;;;;;;9.10;7.23;;;20.50;99.90;;;;;;4983057;28;20827;-88
2021/09/23 09:23:56;;;;;;;10.00;9.13;;;20.30;99.90;;;;;;4986255;28;20504;-86
2021/09/23 09:26:43;;;;;;;12.97;7.83;;;20.40;99.90;;;;;;5003536;28;20462;-87
2021/09/23 09:29:13;;;;;;;8.23;7.57;;;20.40;99.90;;;;;;4994963;28;20451;-87
2021/09/23 09:31:48;;;;;;;6.73;6.13;;;20.30;99.90;;;;;;4987171;28;20402;-86
2021/09/23 09:34:19;;;;;;;7.60;7.03;;;20.50;99.90;;;;;;5002928;28;20444;-87
2021/09/23 09:36:49;;;;;;;7.70;6.53;;;20.80;99.90;;;;;;5002728;28;20446;-89
2021/09/23 09:39:19;;;;;;;6.33;5.83;;;20.90;99.90;;;;;;4997814;28;20487;-88
2021/09/23 09:41:49;;;;;;;6.70;5.77;;;21.00;99.90;;;;;;5001771;28;20542;-87
2021/09/23 09:44:18;;;;;;;7.20;6.50;;;20.90;99.90;;;;;;4998831;28;20505;-85
2021/09/23 09:46:54;;;;;;;6.97;6.40;;;20.90;99.90;;;;;;4985841;28;20503;-85
2021/09/23 09:49:24;;;;;;;8.00;6.80;;;20.80;99.90;;;;;;4984666;28;20424;-86
2021/09/23 09:51:58;;;;;;;8.60;6.83;;;21.10;99.90;;;;;;4993393;28;20467;-86
2021/09/23 09:54:27;;;;;;;8.87;8.00;;;21.10;99.90;;;;;;4984980;28;20498;-85
2021/09/23 09:56:59;;;;;;;9.20;7.70;;;21.10;99.90;;;;;;4980618;28;20442;-88
2021/09/23 09:59:27;;;;;;;7.60;7.03;;;21.00;99.90;;;;;;4997345;28;20438;-90
2021/09/23 10:01:56;;;;;;;8.27;7.47;;;21.00;99.90;;;;;;4984679;28;20460;-86
2021/09/23 10:04:28;;;;;;;10.37;9.37;;;20.90;99.90;;;;;;5002981;28;20450;-86
2021/09/23 10:07:02;;;;;;;9.90;8.90;;;20.90;99.90;;;;;;5017357;28;20486;-86
2021/09/23 10:09:34;;;;;;;10.70;8.10;;;21.10;99.90;;;;;;4997764;28;20488;-88
2021/09/23 10:12:02;;;;;;;9.90;8.93;;;21.20;99.90;;;;;;4999184;28;20460;-90
2021/09/23 10:14:31;;;;;;;11.53;10.47;;;21.30;99.90;;;;;;5000566;28;20439;-87
2021/09/23 10:16:59;;;;;;;9.73;8.00;;;21.30;99.90;;;;;;5006076;28;20620;-86
2021/09/23 10:19:28;;;;;;;13.83;8.37;;;21.50;99.90;;;;;;5004831;28;20432;-88
2021/09/23 10:21:56;;;;;;;8.63;7.73;;;21.60;99.90;;;;;;4989460;28;20565;-87
2021/09/23 10:24:25;;;;;;;8.13;6.90;;;21.80;99.90;;;;;;5006629;28;20447;-86
2021/09/23 10:26:53;;;;;;;7.43;6.83;;;21.90;99.90;;;;;;5006499;28;20451;-88
2021/09/23 10:29:22;;;;;;;8.23;7.10;;;22.00;99.90;;;;;;4989848;28;20436;-87
2021/09/23 10:31:57;;;;;;;7.60;7.00;;;22.00;99.90;;;;;;5001757;28;20507;-87
2021/09/23 10:34:25;;;;;;;8.53;7.83;;;22.20;99.90;;;;;;5004405;28;20628;-86
2021/09/23 10:36:53;;;;;;;7.67;6.87;;;22.30;99.90;;;;;;5003983;28;20630;-86
2021/09/23 10:39:21;;;;;;;8.63;6.90;;;22.40;99.90;;;;;;4992748;28;20445;-87
2021/09/23 10:41:48;;;;;;;7.33;6.60;;;22.60;99.90;;;;;;5005247;28;20488;-88
2021/09/23 10:44:17;;;;;;;10.70;8.30;;;22.60;99.90;;;;;;5003942;28;20512;-86
2021/09/23 10:46:44;;;;;;;8.97;8.07;;;22.60;99.90;;;;;;4980082;28;20523;-88
2021/09/23 10:49:13;;;;;;;9.00;7.50;;;22.60;99.90;;;;;;4985931;28;20440;-88
2021/09/23 10:51:41;;;;;;;8.33;7.73;;;22.50;99.90;;;;;;4983211;28;20433;-89
2021/09/23 10:54:17;;;;;;;8.13;7.50;;;22.40;99.90;;;;;;4988189;28;20466;-90
2021/09/23 10:56:46;;;;;;;7.03;6.33;;;22.30;99.90;;;;;;4992614;28;20759;-87
2021/09/23 10:59:16;;;;;;;7.90;7.20;;;22.40;99.90;;;;;;5005486;28;20494;-89
2021/09/23 11:01:45;;;;;;;7.47;6.90;;;22.60;99.90;;;;;;4982875;28;20548;-89
2021/09/23 11:04:26;;;;;;;7.43;6.73;;;22.70;99.90;;;;;;5004109;28;20458;-87
2021/09/23 11:06:58;;;;;;;8.13;7.43;;;23.10;99.90;;;;;;5004551;28;20756;-87
2021/09/23 11:09:26;;;;;;;8.87;6.53;;;22.90;99.90;;;;;;4992744;28;20777;-89
2021/09/23 11:11:57;;;;;;;6.57;6.07;;;22.80;99.90;;;;;;5005642;28;20449;-88
2021/09/23 11:14:26;;;;;;;7.40;6.70;;;22.90;99.90;;;;;;4988354;28;20488;-89
2021/09/23 11:16:58;;;;;;;7.27;6.57;;;22.80;99.90;;;;;;4988488;28;20442;-87
2021/09/23 11:19:27;;;;;;;8.23;7.23;;;22.70;99.90;;;;;;4997277;28;20420;-87
2021/09/23 11:21:56;;;;;;;6.43;5.83;;;22.60;99.90;;;;;;5005253;28;20481;-87
2021/09/23 11:24:25;;;;;;;7.43;6.87;;;22.40;99.90;;;;;;4988622;28;20438;-88
2021/09/23 11:26:54;;;;;;;11.70;7.53;;;22.10;99.90;;;;;;5005482;28;20445;-88
2021/09/23 11:29:22;;;;;;;6.20;5.80;;;22.00;99.90;;;;;;4988365;28;20492;-85
2021/09/23 11:31:52;;;;;;;6.43;5.83;;;22.00;99.90;;;;;;5005241;28;20813;-85
2021/09/23 11:34:31;;;;;;;8.33;6.47;;;22.20;99.90;;;;;;5000098;28;20441;-89
2021/09/23 11:36:58;;;;;;;5.13;4.67;;;22.30;99.90;;;;;;4987699;28;20484;-88
2021/09/23 11:39:26;;;;;;;5.80;5.40;;;22.40;99.90;;;;;;5004309;28;20449;-87
2021/09/23 11:42:14;;;;;;;6.10;5.50;;;22.40;99.90;;;;;;5004122;28;21174;-87
2021/09/23 11:44:43;;;;;;;5.13;4.80;;;22.80;99.90;;;;;;4986678;28;20438;-88
2021/09/23 11:47:25;;;;;;;5.13;4.80;;;23.00;99.90;;;;;;4987895;28;20438;-84
2021/09/23 11:49:55;;;;;;;6.00;4.37;;;22.90;99.90;;;;;;5000805;28;20429;-88
2021/09/23 11:52:37;;;;;;;10.77;5.27;;;22.80;99.90;;;;;;5003596;28;20450;-86
2021/09/23 11:55:16;;;;;;;4.60;4.23;;;23.10;99.90;;;;;;4982053;28;20441;-86
2021/09/23 11:57:44;;;;;;;4.80;4.23;;;23.40;99.90;;;;;;5003238;28;20456;-88
2021/09/23 12:00:12;;;;;;;4.73;4.17;;;23.40;99.90;;;;;;5005094;28;20454;-83
2021/09/23 12:02:39;;;;;;;4.90;4.17;;;23.50;99.90;;;;;;5005062;28;20541;-88
2021/09/23 12:05:07;;;;;;;4.90;4.60;;;23.50;99.90;;;;;;5004051;28;20440;-86
2021/09/23 12:07:44;;;;;;;4.93;4.60;;;23.50;99.90;;;;;;4987045;28;20498;-85
2021/09/23 12:10:14;;;;;;;8.13;6.93;;;23.50;99.90;;;;;;5004097;28;20439;-86
2021/09/23 12:12:42;;;;;;;5.23;4.83;;;23.40;99.90;;;;;;4987110;28;20443;-86
2021/09/23 12:15:09;;;;;;;5.13;4.47;;;23.60;99.90;;;;;;5006202;28;20494;-89
2021/09/23 12:17:53;;;;;;;4.60;4.33;;;23.70;99.90;;;;;;5003537;28;20446;-87
2021/09/23 12:20:42;;;;;;;4.50;4.20;;;23.70;99.90;;;;;;5003581;28;20446;-87
2021/09/23 12:23:22;;;;;;;9.30;4.20;;;23.70;99.90;;;;;;4986467;28;20471;-86
2021/09/23 12:26:11;;;;;;;4.33;4.03;;;23.70;99.90;;;;;;4985586;28;20691;-87
2021/09/23 12:28:46;;;;;;;4.87;4.47;;;23.70;99.90;;;;;;5004452;28;20572;-86
2021/09/23 12:31:16;;;;;;;4.90;4.50;;;23.90;99.90;;;;;;5002928;28;20421;-87
2021/09/23 12:33:53;;;;;;;4.07;3.87;;;23.60;99.90;;;;;;4986400;28;20470;-87
2021/09/23 12:36:28;;;;;;;3.60;3.40;;;23.50;99.90;;;;;;4988714;28;20439;-87
2021/09/23 12:39:23;;;;;;;3.87;3.67;;;23.40;99.90;;;;;;4989148;28;20414;-86
2021/09/23 12:41:53;;;;;;;3.80;3.60;;;23.30;99.90;;;;;;4993288;28;20660;-88
2021/09/23 12:44:26;;;;;;;3.80;3.60;;;23.30;99.90;;;;;;5001110;28;20443;-88
2021/09/23 12:47:06;;;;;;;4.10;3.90;;;23.20;99.90;;;;;;4982961;28;20439;-88
2021/09/23 12:49:33;;;;;;;4.77;4.47;;;22.90;99.90;;;;;;4986434;28;20442;-88
2021/09/23 12:52:14;;;;;;;4.37;4.07;;;22.90;99.90;;;;;;5003052;28;20443;-87
2021/09/23 12:54:55;;;;;;;4.60;4.30;;;22.90;99.90;;;;;;4986475;28;20741;-88